sensor_id;sensor_type;location;lat;lon;timestamp;P1;durP1;ratioP1;P2;durP2;ratioP2
50337;SDS011;46221;51.178;5.900;2023-10-09T00:00:27;8.52;;;4.93;;
50337;SDS011;46221;51.178;5.900;2023-10-09T00:03:18;7.07;;;4.80;;
50337;SDS011;46221;51.178;5.900;2023-10-09T00:05:44;7.68;;;4.63;;
50337;SDS011;46221;51.178;5.900;2023-10-09T00:08:14;7.90;;;4.80;;
50337;SDS011;46221;51.178;5.900;2023-10-09T00:10:59;7.40;;;4.80;;
50337;SDS011;46221;51.178;5.900;2023-10-09T00:13:39;7.63;;;4.90;;
50337;SDS011;46221;51.178;5.900;2023-10-09T00:16:15;7.30;;;5.32;;
50337;SDS011;46221;51.178;5.900;2023-10-09T00:18:50;9.05;;;5.18;;
50337;SDS011;46221;51.178;5.900;2023-10-09T00:21:16;9.55;;;5.00;;
50337;SDS011;46221;51.178;5.900;2023-10-09T00:23:46;7.65;;;4.88;;
50337;SDS011;46221;51.178;5.900;2023-10-09T00:26:21;10.07;;;5.40;;
50337;SDS011;46221;51.178;5.900;2023-10-09T00:28:49;8.48;;;4.85;;
50337;SDS011;46221;51.178;5.900;2023-10-09T00:31:17;8.48;;;4.68;;
50337;SDS011;46221;51.178;5.900;2023-10-09T00:33:54;7.40;;;4.38;;
50337;SDS011;46221;51.178;5.900;2023-10-09T00:36:21;6.95;;;4.45;;
50337;SDS011;46221;51.178;5.900;2023-10-09T00:38:54;8.98;;;5.03;;
50337;SDS011;46221;51.178;5.900;2023-10-09T00:41:20;7.45;;;4.38;;
50337;SDS011;46221;51.178;5.900;2023-10-09T00:43:51;6.75;;;4.03;;
50337;SDS011;46221;51.178;5.900;2023-10-09T00:46:25;7.25;;;4.75;;
50337;SDS011;46221;51.178;5.900;2023-10-09T00:48:55;7.03;;;4.72;;
50337;SDS011;46221;51.178;5.900;2023-10-09T00:51:22;6.70;;;3.97;;
50337;SDS011;46221;51.178;5.900;2023-10-09T00:53:49;8.30;;;4.88;;
50337;SDS011;46221;51.178;5.900;2023-10-09T00:56:20;7.18;;;4.90;;
50337;SDS011;46221;51.178;5.900;2023-10-09T00:58:56;6.38;;;4.22;;
50337;SDS011;46221;51.178;5.900;2023-10-09T01:01:29;8.00;;;4.28;;
50337;SDS011;46221;51.178;5.900;2023-10-09T01:04:06;7.70;;;4.50;;
50337;SDS011;46221;51.178;5.900;2023-10-09T01:06:41;7.70;;;4.28;;
50337;SDS011;46221;51.178;5.900;2023-10-09T01:09:11;7.38;;;4.43;;
50337;SDS011;46221;51.178;5.900;2023-10-09T01:11:41;8.10;;;4.70;;
50337;SDS011;46221;51.178;5.900;2023-10-09T01:14:15;6.82;;;4.20;;
50337;SDS011;46221;51.178;5.900;2023-10-09T01:16:44;8.65;;;4.15;;
50337;SDS011;46221;51.178;5.900;2023-10-09T01:19:13;7.20;;;4.20;;
50337;SDS011;46221;51.178;5.900;2023-10-09T01:21:46;7.40;;;4.20;;
50337;SDS011;46221;51.178;5.900;2023-10-09T01:24:12;7.72;;;4.20;;
50337;SDS011;46221;51.178;5.900;2023-10-09T01:26:39;6.88;;;4.22;;
50337;SDS011;46221;51.178;5.900;2023-10-09T01:29:19;6.40;;;3.90;;
50337;SDS011;46221;51.178;5.900;2023-10-09T01:31:46;7.15;;;4.28;;
50337;SDS011;46221;51.178;5.900;2023-10-09T01:34:32;8.77;;;4.53;;
50337;SDS011;46221;51.178;5.900;2023-10-09T01:37:09;6.93;;;4.30;;
50337;SDS011;46221;51.178;5.900;2023-10-09T01:39:41;7.45;;;4.82;;
50337;SDS011;46221;51.178;5.900;2023-10-09T01:42:08;7.38;;;4.32;;
50337;SDS011;46221;51.178;5.900;2023-10-09T01:44:36;7.30;;;4.93;;
50337;SDS011;46221;51.178;5.900;2023-10-09T01:47:09;7.50;;;4.18;;
50337;SDS011;46221;51.178;5.900;2023-10-09T01:49:40;6.65;;;4.28;;
50337;SDS011;46221;51.178;5.900;2023-10-09T01:52:10;7.93;;;3.83;;
50337;SDS011;46221;51.178;5.900;2023-10-09T01:54:39;6.57;;;3.90;;
50337;SDS011;46221;51.178;5.900;2023-10-09T01:57:08;6.22;;;4.63;;
50337;SDS011;46221;51.178;5.900;2023-10-09T01:59:41;8.00;;;4.15;;
50337;SDS011;46221;51.178;5.900;2023-10-09T02:02:16;6.03;;;4.10;;
50337;SDS011;46221;51.178;5.900;2023-10-09T02:05:03;6.60;;;4.40;;
50337;SDS011;46221;51.178;5.900;2023-10-09T02:07:51;7.60;;;4.35;;
50337;SDS011;46221;51.178;5.900;2023-10-09T02:10:19;6.93;;;3.95;;
50337;SDS011;46221;51.178;5.900;2023-10-09T02:12:52;6.72;;;4.47;;
50337;SDS011;46221;51.178;5.900;2023-10-09T02:15:27;7.53;;;4.55;;
50337;SDS011;46221;51.178;5.900;2023-10-09T02:18:09;6.28;;;4.20;;
50337;SDS011;46221;51.178;5.900;2023-10-09T02:20:53;6.80;;;4.43;;
50337;SDS011;46221;51.178;5.900;2023-10-09T02:23:30;7.00;;;4.15;;
50337;SDS011;46221;51.178;5.900;2023-10-09T02:26:12;6.13;;;4.00;;
50337;SDS011;46221;51.178;5.900;2023-10-09T02:28:53;6.70;;;4.20;;
50337;SDS011;46221;51.178;5.900;2023-10-09T02:31:26;5.90;;;3.80;;
50337;SDS011;46221;51.178;5.900;2023-10-09T02:36:31;7.03;;;3.85;;
50337;SDS011;46221;51.178;5.900;2023-10-09T02:38:57;5.72;;;3.80;;
50337;SDS011;46221;51.178;5.900;2023-10-09T02:41:24;6.82;;;4.43;;
50337;SDS011;46221;51.178;5.900;2023-10-09T02:43:54;6.53;;;4.45;;
50337;SDS011;46221;51.178;5.900;2023-10-09T02:46:31;5.88;;;4.05;;
50337;SDS011;46221;51.178;5.900;2023-10-09T02:48:57;6.28;;;3.90;;
50337;SDS011;46221;51.178;5.900;2023-10-09T02:51:24;5.88;;;3.80;;
50337;SDS011;46221;51.178;5.900;2023-10-09T02:53:58;6.63;;;4.07;;
50337;SDS011;46221;51.178;5.900;2023-10-09T02:56:25;6.20;;;4.07;;
50337;SDS011;46221;51.178;5.900;2023-10-09T02:59:02;5.70;;;3.78;;
50337;SDS011;46221;51.178;5.900;2023-10-09T03:01:33;6.05;;;4.10;;
50337;SDS011;46221;51.178;5.900;2023-10-09T03:04:01;5.63;;;4.05;;
50337;SDS011;46221;51.178;5.900;2023-10-09T03:06:29;8.68;;;4.22;;
50337;SDS011;46221;51.178;5.900;2023-10-09T03:08:58;6.95;;;4.28;;
50337;SDS011;46221;51.178;5.900;2023-10-09T03:11:25;6.47;;;4.18;;
50337;SDS011;46221;51.178;5.900;2023-10-09T03:13:53;6.40;;;4.10;;
50337;SDS011;46221;51.178;5.900;2023-10-09T03:16:21;6.07;;;3.97;;
50337;SDS011;46221;51.178;5.900;2023-10-09T03:18:52;6.55;;;4.13;;
50337;SDS011;46221;51.178;5.900;2023-10-09T03:21:19;5.60;;;3.70;;
50337;SDS011;46221;51.178;5.900;2023-10-09T03:23:48;5.68;;;3.88;;
50337;SDS011;46221;51.178;5.900;2023-10-09T03:26:18;6.82;;;3.80;;
50337;SDS011;46221;51.178;5.900;2023-10-09T03:28:48;5.75;;;3.60;;
50337;SDS011;46221;51.178;5.900;2023-10-09T03:31:14;8.07;;;3.92;;
50337;SDS011;46221;51.178;5.900;2023-10-09T03:33:41;7.13;;;3.53;;
50337;SDS011;46221;51.178;5.900;2023-10-09T03:36:07;5.60;;;3.75;;
50337;SDS011;46221;51.178;5.900;2023-10-09T03:38:37;5.32;;;3.33;;
50337;SDS011;46221;51.178;5.900;2023-10-09T03:41:05;6.78;;;3.90;;
50337;SDS011;46221;51.178;5.900;2023-10-09T03:43:35;6.78;;;3.83;;
50337;SDS011;46221;51.178;5.900;2023-10-09T03:46:08;5.43;;;3.42;;
50337;SDS011;46221;51.178;5.900;2023-10-09T03:48:41;6.47;;;4.07;;
50337;SDS011;46221;51.178;5.900;2023-10-09T03:51:12;8.00;;;3.97;;
50337;SDS011;46221;51.178;5.900;2023-10-09T03:53:41;5.65;;;3.63;;
50337;SDS011;46221;51.178;5.900;2023-10-09T03:56:08;5.45;;;3.53;;
50337;SDS011;46221;51.178;5.900;2023-10-09T03:58:45;6.53;;;3.60;;
50337;SDS011;46221;51.178;5.900;2023-10-09T04:01:12;4.93;;;3.25;;
50337;SDS011;46221;51.178;5.900;2023-10-09T04:03:51;5.97;;;3.55;;
50337;SDS011;46221;51.178;5.900;2023-10-09T04:06:27;5.75;;;3.40;;
50337;SDS011;46221;51.178;5.900;2023-10-09T04:08:57;6.07;;;3.88;;
50337;SDS011;46221;51.178;5.900;2023-10-09T04:11:25;5.72;;;3.45;;
50337;SDS011;46221;51.178;5.900;2023-10-09T04:13:52;4.97;;;3.53;;
50337;SDS011;46221;51.178;5.900;2023-10-09T04:16:19;6.38;;;3.55;;
50337;SDS011;46221;51.178;5.900;2023-10-09T04:18:55;6.80;;;4.13;;
50337;SDS011;46221;51.178;5.900;2023-10-09T04:21:23;5.93;;;3.47;;
50337;SDS011;46221;51.178;5.900;2023-10-09T04:24:02;5.70;;;3.63;;
50337;SDS011;46221;51.178;5.900;2023-10-09T04:26:49;5.70;;;3.38;;
50337;SDS011;46221;51.178;5.900;2023-10-09T04:29:22;5.80;;;3.70;;
50337;SDS011;46221;51.178;5.900;2023-10-09T04:32:04;7.22;;;3.58;;
50337;SDS011;46221;51.178;5.900;2023-10-09T04:34:34;6.25;;;3.58;;
50337;SDS011;46221;51.178;5.900;2023-10-09T04:37:15;5.88;;;2.95;;
50337;SDS011;46221;51.178;5.900;2023-10-09T04:39:41;5.57;;;3.60;;
50337;SDS011;46221;51.178;5.900;2023-10-09T04:42:15;6.18;;;3.40;;
50337;SDS011;46221;51.178;5.900;2023-10-09T04:44:45;5.47;;;3.70;;
50337;SDS011;46221;51.178;5.900;2023-10-09T04:47:30;5.80;;;3.83;;
50337;SDS011;46221;51.178;5.900;2023-10-09T04:52:32;5.90;;;4.10;;
50337;SDS011;46221;51.178;5.900;2023-10-09T04:54:59;6.50;;;3.85;;
50337;SDS011;46221;51.178;5.900;2023-10-09T04:57:45;7.72;;;4.30;;
50337;SDS011;46221;51.178;5.900;2023-10-09T05:00:15;6.70;;;4.28;;
50337;SDS011;46221;51.178;5.900;2023-10-09T05:05:25;6.32;;;4.07;;
50337;SDS011;46221;51.178;5.900;2023-10-09T05:10:59;7.32;;;3.67;;
50337;SDS011;46221;51.178;5.900;2023-10-09T05:18:31;8.52;;;4.05;;
50337;SDS011;46221;51.178;5.900;2023-10-09T05:21:03;9.30;;;3.88;;
50337;SDS011;46221;51.178;5.900;2023-10-09T05:26:15;6.55;;;3.60;;
50337;SDS011;46221;51.178;5.900;2023-10-09T05:28:59;7.18;;;4.40;;
50337;SDS011;46221;51.178;5.900;2023-10-09T05:34:22;6.05;;;3.92;;
50337;SDS011;46221;51.178;5.900;2023-10-09T05:36:49;7.43;;;3.72;;
50337;SDS011;46221;51.178;5.900;2023-10-09T05:39:15;7.93;;;3.72;;
50337;SDS011;46221;51.178;5.900;2023-10-09T05:41:56;6.90;;;4.40;;
50337;SDS011;46221;51.178;5.900;2023-10-09T05:44:36;9.80;;;4.50;;
50337;SDS011;46221;51.178;5.900;2023-10-09T05:47:21;7.63;;;4.05;;
50337;SDS011;46221;51.178;5.900;2023-10-09T05:49:59;7.40;;;3.95;;
50337;SDS011;46221;51.178;5.900;2023-10-09T05:52:32;7.03;;;4.20;;
50337;SDS011;46221;51.178;5.900;2023-10-09T05:54:59;8.20;;;4.55;;
50337;SDS011;46221;51.178;5.900;2023-10-09T05:57:44;7.88;;;4.55;;
50337;SDS011;46221;51.178;5.900;2023-10-09T06:00:30;5.32;;;3.63;;
50337;SDS011;46221;51.178;5.900;2023-10-09T06:03:15;8.77;;;3.88;;
50337;SDS011;46221;51.178;5.900;2023-10-09T06:05:45;8.05;;;4.28;;
50337;SDS011;46221;51.178;5.900;2023-10-09T06:08:31;5.32;;;3.50;;
50337;SDS011;46221;51.178;5.900;2023-10-09T06:11:07;5.85;;;3.95;;
50337;SDS011;46221;51.178;5.900;2023-10-09T06:13:53;6.60;;;4.35;;
50337;SDS011;46221;51.178;5.900;2023-10-09T06:16:36;9.15;;;4.00;;
50337;SDS011;46221;51.178;5.900;2023-10-09T06:19:05;7.82;;;3.65;;
50337;SDS011;46221;51.178;5.900;2023-10-09T06:21:35;6.47;;;3.72;;
50337;SDS011;46221;51.178;5.900;2023-10-09T06:24:19;6.30;;;3.53;;
50337;SDS011;46221;51.178;5.900;2023-10-09T06:26:49;7.15;;;4.07;;
50337;SDS011;46221;51.178;5.900;2023-10-09T06:29:28;7.18;;;4.03;;
50337;SDS011;46221;51.178;5.900;2023-10-09T06:32:10;6.68;;;3.70;;
50337;SDS011;46221;51.178;5.900;2023-10-09T06:34:53;7.25;;;4.10;;
50337;SDS011;46221;51.178;5.900;2023-10-09T06:37:23;7.43;;;3.90;;
50337;SDS011;46221;51.178;5.900;2023-10-09T06:39:50;6.30;;;3.67;;
50337;SDS011;46221;51.178;5.900;2023-10-09T06:42:17;7.13;;;3.97;;
50337;SDS011;46221;51.178;5.900;2023-10-09T06:47:35;7.22;;;3.63;;
50337;SDS011;46221;51.178;5.900;2023-10-09T06:50:11;6.00;;;3.53;;
50337;SDS011;46221;51.178;5.900;2023-10-09T06:52:47;6.15;;;3.90;;
50337;SDS011;46221;51.178;5.900;2023-10-09T06:55:35;6.72;;;3.67;;
50337;SDS011;46221;51.178;5.900;2023-10-09T06:58:17;6.97;;;3.65;;
50337;SDS011;46221;51.178;5.900;2023-10-09T07:00:54;8.13;;;4.03;;
50337;SDS011;46221;51.178;5.900;2023-10-09T07:03:39;6.32;;;3.75;;
50337;SDS011;46221;51.178;5.900;2023-10-09T07:06:26;6.70;;;3.83;;
50337;SDS011;46221;51.178;5.900;2023-10-09T07:08:53;7.30;;;3.85;;
50337;SDS011;46221;51.178;5.900;2023-10-09T07:11:32;6.43;;;3.75;;
50337;SDS011;46221;51.178;5.900;2023-10-09T07:14:14;6.50;;;3.78;;
50337;SDS011;46221;51.178;5.900;2023-10-09T07:16:56;6.68;;;3.53;;
50337;SDS011;46221;51.178;5.900;2023-10-09T07:19:42;8.85;;;4.10;;
50337;SDS011;46221;51.178;5.900;2023-10-09T07:22:09;8.45;;;4.50;;
50337;SDS011;46221;51.178;5.900;2023-10-09T07:24:48;6.93;;;4.15;;
50337;SDS011;46221;51.178;5.900;2023-10-09T07:27:25;8.02;;;4.03;;
50337;SDS011;46221;51.178;5.900;2023-10-09T07:30:11;7.30;;;4.27;;
50337;SDS011;46221;51.178;5.900;2023-10-09T07:32:57;9.10;;;4.43;;
50337;SDS011;46221;51.178;5.900;2023-10-09T07:35:36;7.18;;;3.95;;
50337;SDS011;46221;51.178;5.900;2023-10-09T07:38:19;6.22;;;4.25;;
50337;SDS011;46221;51.178;5.900;2023-10-09T07:40:49;10.18;;;4.32;;
50337;SDS011;46221;51.178;5.900;2023-10-09T07:43:37;6.38;;;4.40;;
50337;SDS011;46221;51.178;5.900;2023-10-09T07:46:23;7.97;;;4.03;;
50337;SDS011;46221;51.178;5.900;2023-10-09T07:49:01;7.63;;;4.20;;
50337;SDS011;46221;51.178;5.900;2023-10-09T07:51:35;9.40;;;4.45;;
50337;SDS011;46221;51.178;5.900;2023-10-09T07:54:02;7.53;;;4.20;;
50337;SDS011;46221;51.178;5.900;2023-10-09T07:56:36;8.07;;;3.72;;
50337;SDS011;46221;51.178;5.900;2023-10-09T07:59:10;7.15;;;4.30;;
50337;SDS011;46221;51.178;5.900;2023-10-09T08:01:39;6.47;;;3.92;;
50337;SDS011;46221;51.178;5.900;2023-10-09T08:04:18;6.50;;;4.32;;
50337;SDS011;46221;51.178;5.900;2023-10-09T08:06:56;6.93;;;4.38;;
50337;SDS011;46221;51.178;5.900;2023-10-09T08:09:44;6.00;;;4.22;;
50337;SDS011;46221;51.178;5.900;2023-10-09T08:12:14;8.45;;;4.40;;
50337;SDS011;46221;51.178;5.900;2023-10-09T08:14:59;8.02;;;4.45;;
50337;SDS011;46221;51.178;5.900;2023-10-09T08:17:39;8.88;;;4.95;;
50337;SDS011;46221;51.178;5.900;2023-10-09T08:20:05;9.07;;;5.30;;
50337;SDS011;46221;51.178;5.900;2023-10-09T08:22:38;12.35;;;5.88;;
50337;SDS011;46221;51.178;5.900;2023-10-09T08:25:09;13.25;;;5.82;;
50337;SDS011;46221;51.178;5.900;2023-10-09T08:27:52;13.13;;;6.00;;
50337;SDS011;46221;51.178;5.900;2023-10-09T08:30:24;12.57;;;5.80;;
50337;SDS011;46221;51.178;5.900;2023-10-09T08:32:50;14.80;;;5.95;;
50337;SDS011;46221;51.178;5.900;2023-10-09T08:35:35;12.25;;;5.18;;
50337;SDS011;46221;51.178;5.900;2023-10-09T08:38:15;12.82;;;5.78;;
50337;SDS011;46221;51.178;5.900;2023-10-09T08:40:43;13.70;;;5.65;;
50337;SDS011;46221;51.178;5.900;2023-10-09T08:43:15;10.02;;;5.47;;
50337;SDS011;46221;51.178;5.900;2023-10-09T08:45:45;10.93;;;5.57;;
50337;SDS011;46221;51.178;5.900;2023-10-09T08:48:13;13.00;;;6.20;;
50337;SDS011;46221;51.178;5.900;2023-10-09T08:50:42;13.80;;;6.60;;
50337;SDS011;46221;51.178;5.900;2023-10-09T08:53:13;8.50;;;5.00;;
50337;SDS011;46221;51.178;5.900;2023-10-09T08:55:40;9.60;;;5.78;;
50337;SDS011;46221;51.178;5.900;2023-10-09T08:58:07;10.48;;;5.13;;
50337;SDS011;46221;51.178;5.900;2023-10-09T09:00:46;10.82;;;5.35;;
50337;SDS011;46221;51.178;5.900;2023-10-09T09:03:17;10.50;;;5.10;;
50337;SDS011;46221;51.178;5.900;2023-10-09T09:05:47;10.18;;;4.78;;
50337;SDS011;46221;51.178;5.900;2023-10-09T09:08:25;9.25;;;5.18;;
50337;SDS011;46221;51.178;5.900;2023-10-09T09:11:01;9.48;;;5.25;;
50337;SDS011;46221;51.178;5.900;2023-10-09T09:13:47;8.52;;;4.57;;
50337;SDS011;46221;51.178;5.900;2023-10-09T09:16:18;8.63;;;4.50;;
50337;SDS011;46221;51.178;5.900;2023-10-09T09:18:55;10.15;;;5.72;;
50337;SDS011;46221;51.178;5.900;2023-10-09T09:21:34;8.27;;;4.10;;
50337;SDS011;46221;51.178;5.900;2023-10-09T09:24:21;9.48;;;4.88;;
50337;SDS011;46221;51.178;5.900;2023-10-09T09:26:48;7.18;;;4.10;;
50337;SDS011;46221;51.178;5.900;2023-10-09T09:32:07;8.43;;;4.65;;
50337;SDS011;46221;51.178;5.900;2023-10-09T09:34:44;9.57;;;4.80;;
50337;SDS011;46221;51.178;5.900;2023-10-09T09:37:27;9.73;;;5.07;;
50337;SDS011;46221;51.178;5.900;2023-10-09T09:39:58;8.32;;;4.63;;
50337;SDS011;46221;51.178;5.900;2023-10-09T09:42:28;9.57;;;5.32;;
50337;SDS011;46221;51.178;5.900;2023-10-09T09:44:58;10.70;;;5.00;;
50337;SDS011;46221;51.178;5.900;2023-10-09T09:47:25;9.05;;;5.20;;
50337;SDS011;46221;51.178;5.900;2023-10-09T09:49:56;9.23;;;5.30;;
50337;SDS011;46221;51.178;5.900;2023-10-09T09:52:40;10.93;;;5.13;;
50337;SDS011;46221;51.178;5.900;2023-10-09T09:55:07;9.73;;;5.82;;
50337;SDS011;46221;51.178;5.900;2023-10-09T09:57:41;8.98;;;5.53;;
50337;SDS011;46221;51.178;5.900;2023-10-09T10:00:08;9.77;;;6.40;;
50337;SDS011;46221;51.178;5.900;2023-10-09T10:02:57;9.02;;;5.68;;
50337;SDS011;46221;51.178;5.900;2023-10-09T10:05:25;8.77;;;5.47;;
50337;SDS011;46221;51.178;5.900;2023-10-09T10:07:57;8.43;;;5.80;;
50337;SDS011;46221;51.178;5.900;2023-10-09T10:10:33;10.27;;;5.43;;
50337;SDS011;46221;51.178;5.900;2023-10-09T10:13:00;9.43;;;6.03;;
50337;SDS011;46221;51.178;5.900;2023-10-09T10:18:12;8.82;;;5.90;;
50337;SDS011;46221;51.178;5.900;2023-10-09T10:26:16;8.52;;;5.40;;
50337;SDS011;46221;51.178;5.900;2023-10-09T10:28:42;9.05;;;5.28;;
50337;SDS011;46221;51.178;5.900;2023-10-09T10:31:11;8.13;;;5.18;;
50337;SDS011;46221;51.178;5.900;2023-10-09T10:36:21;8.15;;;5.10;;
50337;SDS011;46221;51.178;5.900;2023-10-09T10:39:04;8.68;;;5.30;;
50337;SDS011;46221;51.178;5.900;2023-10-09T10:41:31;9.38;;;4.88;;
50337;SDS011;46221;51.178;5.900;2023-10-09T10:44:02;8.70;;;4.97;;
50337;SDS011;46221;51.178;5.900;2023-10-09T10:47:08;8.57;;;4.97;;
50337;SDS011;46221;51.178;5.900;2023-10-09T10:49:49;9.32;;;5.25;;
50337;SDS011;46221;51.178;5.900;2023-10-09T10:52:25;8.45;;;4.90;;
50337;SDS011;46221;51.178;5.900;2023-10-09T10:55:11;7.78;;;4.63;;
50337;SDS011;46221;51.178;5.900;2023-10-09T10:58:01;9.43;;;5.15;;
50337;SDS011;46221;51.178;5.900;2023-10-09T11:00:28;7.65;;;5.18;;
50337;SDS011;46221;51.178;5.900;2023-10-09T11:03:17;8.52;;;5.35;;
50337;SDS011;46221;51.178;5.900;2023-10-09T11:05:46;8.48;;;4.80;;
50337;SDS011;46221;51.178;5.900;2023-10-09T11:08:18;7.88;;;4.80;;
50337;SDS011;46221;51.178;5.900;2023-10-09T11:10:49;6.93;;;4.95;;
50337;SDS011;46221;51.178;5.900;2023-10-09T11:13:22;9.13;;;5.10;;
50337;SDS011;46221;51.178;5.900;2023-10-09T11:15:56;6.68;;;4.38;;
50337;SDS011;46221;51.178;5.900;2023-10-09T11:18:41;7.03;;;4.80;;
50337;SDS011;46221;51.178;5.900;2023-10-09T11:21:13;7.78;;;4.70;;
50337;SDS011;46221;51.178;5.900;2023-10-09T11:23:40;10.35;;;5.10;;
50337;SDS011;46221;51.178;5.900;2023-10-09T11:26:19;7.60;;;5.03;;
50337;SDS011;46221;51.178;5.900;2023-10-09T11:29:05;7.30;;;4.60;;
50337;SDS011;46221;51.178;5.900;2023-10-09T11:31:56;7.63;;;4.93;;
50337;SDS011;46221;51.178;5.900;2023-10-09T11:34:24;8.27;;;4.82;;
50337;SDS011;46221;51.178;5.900;2023-10-09T11:36:58;8.50;;;5.30;;
50337;SDS011;46221;51.178;5.900;2023-10-09T11:39:26;8.93;;;4.70;;
50337;SDS011;46221;51.178;5.900;2023-10-09T11:42:04;9.18;;;5.45;;
50337;SDS011;46221;51.178;5.900;2023-10-09T11:44:34;8.50;;;4.78;;
50337;SDS011;46221;51.178;5.900;2023-10-09T11:47:01;7.72;;;5.25;;
50337;SDS011;46221;51.178;5.900;2023-10-09T11:49:55;8.73;;;4.90;;
50337;SDS011;46221;51.178;5.900;2023-10-09T11:52:54;9.63;;;5.38;;
50337;SDS011;46221;51.178;5.900;2023-10-09T11:55:23;7.70;;;4.55;;
50337;SDS011;46221;51.178;5.900;2023-10-09T11:57:51;7.63;;;5.10;;
50337;SDS011;46221;51.178;5.900;2023-10-09T12:00:18;7.47;;;4.70;;
50337;SDS011;46221;51.178;5.900;2023-10-09T12:02:57;7.03;;;4.53;;
50337;SDS011;46221;51.178;5.900;2023-10-09T12:05:31;8.25;;;4.90;;
50337;SDS011;46221;51.178;5.900;2023-10-09T12:07:58;7.03;;;4.53;;
50337;SDS011;46221;51.178;5.900;2023-10-09T12:10:27;8.10;;;4.65;;
50337;SDS011;46221;51.178;5.900;2023-10-09T12:12:55;9.20;;;4.90;;
50337;SDS011;46221;51.178;5.900;2023-10-09T12:15:24;7.32;;;4.65;;
50337;SDS011;46221;51.178;5.900;2023-10-09T12:17:51;8.07;;;4.93;;
50337;SDS011;46221;51.178;5.900;2023-10-09T12:20:19;8.85;;;4.72;;
50337;SDS011;46221;51.178;5.900;2023-10-09T12:23:02;9.73;;;5.25;;
50337;SDS011;46221;51.178;5.900;2023-10-09T12:25:33;8.00;;;4.95;;
50337;SDS011;46221;51.178;5.900;2023-10-09T12:27:59;9.25;;;4.75;;
50337;SDS011;46221;51.178;5.900;2023-10-09T12:30:28;8.27;;;5.32;;
50337;SDS011;46221;51.178;5.900;2023-10-09T12:32:55;7.00;;;4.82;;
50337;SDS011;46221;51.178;5.900;2023-10-09T12:35:24;6.68;;;4.20;;
50337;SDS011;46221;51.178;5.900;2023-10-09T12:37:51;7.63;;;4.65;;
50337;SDS011;46221;51.178;5.900;2023-10-09T12:40:18;8.40;;;4.60;;
50337;SDS011;46221;51.178;5.900;2023-10-09T12:42:53;8.13;;;5.47;;
50337;SDS011;46221;51.178;5.900;2023-10-09T12:45:20;8.27;;;4.63;;
50337;SDS011;46221;51.178;5.900;2023-10-09T12:47:52;8.90;;;5.20;;
50337;SDS011;46221;51.178;5.900;2023-10-09T12:50:19;6.25;;;4.65;;
50337;SDS011;46221;51.178;5.900;2023-10-09T12:52:54;7.57;;;4.93;;
50337;SDS011;46221;51.178;5.900;2023-10-09T12:55:21;8.10;;;5.70;;
50337;SDS011;46221;51.178;5.900;2023-10-09T12:57:48;10.18;;;5.53;;
50337;SDS011;46221;51.178;5.900;2023-10-09T13:00:17;8.15;;;5.15;;
50337;SDS011;46221;51.178;5.900;2023-10-09T13:02:51;7.80;;;4.82;;
50337;SDS011;46221;51.178;5.900;2023-10-09T13:05:20;9.23;;;4.82;;
50337;SDS011;46221;51.178;5.900;2023-10-09T13:07:52;7.68;;;4.88;;
50337;SDS011;46221;51.178;5.900;2023-10-09T13:10:19;6.53;;;4.38;;
50337;SDS011;46221;51.178;5.900;2023-10-09T13:12:46;7.22;;;5.00;;
50337;SDS011;46221;51.178;5.900;2023-10-09T13:15:12;7.72;;;4.70;;
50337;SDS011;46221;51.178;5.900;2023-10-09T13:17:40;7.80;;;4.70;;
50337;SDS011;46221;51.178;5.900;2023-10-09T13:20:07;10.50;;;5.35;;
50337;SDS011;46221;51.178;5.900;2023-10-09T13:22:40;7.72;;;4.68;;
50337;SDS011;46221;51.178;5.900;2023-10-09T13:25:08;7.40;;;5.00;;
50337;SDS011;46221;51.178;5.900;2023-10-09T13:27:59;8.68;;;4.93;;
50337;SDS011;46221;51.178;5.900;2023-10-09T13:30:31;9.15;;;5.43;;
50337;SDS011;46221;51.178;5.900;2023-10-09T13:33:05;7.97;;;4.95;;
50337;SDS011;46221;51.178;5.900;2023-10-09T13:35:32;7.63;;;5.20;;
50337;SDS011;46221;51.178;5.900;2023-10-09T13:38:04;9.48;;;4.95;;
50337;SDS011;46221;51.178;5.900;2023-10-09T13:40:36;7.05;;;4.90;;
50337;SDS011;46221;51.178;5.900;2023-10-09T13:43:03;8.65;;;4.88;;
50337;SDS011;46221;51.178;5.900;2023-10-09T13:45:32;5.80;;;4.28;;
50337;SDS011;46221;51.178;5.900;2023-10-09T13:47:59;8.13;;;5.63;;
50337;SDS011;46221;51.178;5.900;2023-10-09T13:50:30;9.07;;;5.90;;
50337;SDS011;46221;51.178;5.900;2023-10-09T13:52:59;8.73;;;5.05;;
50337;SDS011;46221;51.178;5.900;2023-10-09T13:55:26;9.00;;;5.70;;
50337;SDS011;46221;51.178;5.900;2023-10-09T13:58:00;9.55;;;5.68;;
50337;SDS011;46221;51.178;5.900;2023-10-09T14:00:29;8.35;;;5.28;;
50337;SDS011;46221;51.178;5.900;2023-10-09T14:03:00;10.38;;;5.90;;
50337;SDS011;46221;51.178;5.900;2023-10-09T14:05:29;9.77;;;5.80;;
50337;SDS011;46221;51.178;5.900;2023-10-09T14:07:56;9.30;;;6.07;;
50337;SDS011;46221;51.178;5.900;2023-10-09T14:10:26;11.13;;;6.57;;
50337;SDS011;46221;51.178;5.900;2023-10-09T14:12:56;8.30;;;5.40;;
50337;SDS011;46221;51.178;5.900;2023-10-09T14:15:23;11.65;;;6.68;;
50337;SDS011;46221;51.178;5.900;2023-10-09T14:17:49;9.27;;;5.85;;
50337;SDS011;46221;51.178;5.900;2023-10-09T14:20:22;8.60;;;5.80;;
50337;SDS011;46221;51.178;5.900;2023-10-09T14:23:01;8.97;;;5.60;;
50337;SDS011;46221;51.178;5.900;2023-10-09T14:25:34;8.93;;;5.90;;
50337;SDS011;46221;51.178;5.900;2023-10-09T14:28:04;8.68;;;6.00;;
50337;SDS011;46221;51.178;5.900;2023-10-09T14:30:34;11.73;;;6.22;;
50337;SDS011;46221;51.178;5.900;2023-10-09T14:33:08;10.30;;;5.60;;
50337;SDS011;46221;51.178;5.900;2023-10-09T14:35:41;8.23;;;6.25;;
50337;SDS011;46221;51.178;5.900;2023-10-09T14:38:08;10.70;;;6.20;;
50337;SDS011;46221;51.178;5.900;2023-10-09T14:40:41;10.00;;;6.18;;
50337;SDS011;46221;51.178;5.900;2023-10-09T14:43:08;11.00;;;5.82;;
50337;SDS011;46221;51.178;5.900;2023-10-09T14:45:48;9.30;;;5.70;;
50337;SDS011;46221;51.178;5.900;2023-10-09T14:48:15;8.73;;;6.07;;
50337;SDS011;46221;51.178;5.900;2023-10-09T14:50:50;10.68;;;6.68;;
50337;SDS011;46221;51.178;5.900;2023-10-09T14:53:24;10.23;;;6.15;;
50337;SDS011;46221;51.178;5.900;2023-10-09T14:55:54;8.57;;;5.70;;
50337;SDS011;46221;51.178;5.900;2023-10-09T14:58:20;8.20;;;6.10;;
50337;SDS011;46221;51.178;5.900;2023-10-09T15:00:49;8.38;;;5.93;;
50337;SDS011;46221;51.178;5.900;2023-10-09T15:03:15;8.00;;;5.80;;
50337;SDS011;46221;51.178;5.900;2023-10-09T15:05:46;9.38;;;6.13;;
50337;SDS011;46221;51.178;5.900;2023-10-09T15:08:12;10.30;;;5.60;;
50337;SDS011;46221;51.178;5.900;2023-10-09T15:13:14;8.40;;;5.65;;
50337;SDS011;46221;51.178;5.900;2023-10-09T15:15:43;8.98;;;5.88;;
50337;SDS011;46221;51.178;5.900;2023-10-09T15:18:09;8.98;;;5.68;;
50337;SDS011;46221;51.178;5.900;2023-10-09T15:20:39;8.38;;;5.25;;
50337;SDS011;46221;51.178;5.900;2023-10-09T15:23:08;8.10;;;5.03;;
50337;SDS011;46221;51.178;5.900;2023-10-09T15:25:35;8.95;;;5.20;;
50337;SDS011;46221;51.178;5.900;2023-10-09T15:28:05;9.07;;;5.45;;
50337;SDS011;46221;51.178;5.900;2023-10-09T15:30:33;8.18;;;5.20;;
50337;SDS011;46221;51.178;5.900;2023-10-09T15:32:59;8.00;;;5.10;;
50337;SDS011;46221;51.178;5.900;2023-10-09T15:35:27;9.10;;;5.30;;
50337;SDS011;46221;51.178;5.900;2023-10-09T15:37:54;8.07;;;5.72;;
50337;SDS011;46221;51.178;5.900;2023-10-09T15:40:21;8.85;;;5.70;;
50337;SDS011;46221;51.178;5.900;2023-10-09T15:42:50;8.05;;;5.55;;
50337;SDS011;46221;51.178;5.900;2023-10-09T15:45:17;7.70;;;5.60;;
50337;SDS011;46221;51.178;5.900;2023-10-09T15:47:43;8.52;;;5.55;;
50337;SDS011;46221;51.178;5.900;2023-10-09T15:50:11;11.52;;;6.75;;
50337;SDS011;46221;51.178;5.900;2023-10-09T15:52:41;9.18;;;5.90;;
50337;SDS011;46221;51.178;5.900;2023-10-09T15:55:07;10.25;;;6.40;;
50337;SDS011;46221;51.178;5.900;2023-10-09T15:57:40;10.13;;;5.82;;
50337;SDS011;46221;51.178;5.900;2023-10-09T16:00:09;9.70;;;6.25;;